createdAt,value
2023-03-12T00:02:27.945Z,23.61
2023-03-12T00:04:57.883Z,23.61
2023-03-12T00:07:28.107Z,23.58
2023-03-12T00:09:58.173Z,23.54
2023-03-12T00:12:28.233Z,23.47
2023-03-12T00:14:58.475Z,23.44
2023-03-12T00:17:30.356Z,23.42
2023-03-12T00:20:00.657Z,23.40
2023-03-12T00:22:30.680Z,23.40
2023-03-12T00:25:00.734Z,23.35
2023-03-12T00:27:31.071Z,23.31
2023-03-12T00:30:01.131Z,23.28
2023-03-12T00:32:31.159Z,23.27
2023-03-12T00:35:01.398Z,23.21
2023-03-12T00:37:31.540Z,23.18
2023-03-12T00:40:03.096Z,23.13
2023-03-12T00:42:34.863Z,23.06
2023-03-12T00:45:05.160Z,23.06
2023-03-12T00:47:35.531Z,23.06
2023-03-12T00:50:06.045Z,23.04
2023-03-12T00:52:36.799Z,22.99
2023-03-12T00:55:07.152Z,22.92
2023-03-12T00:57:37.375Z,22.80
2023-03-12T01:00:14.071Z,22.77
2023-03-12T01:02:44.357Z,22.86
2023-03-12T01:05:15.267Z,22.83
2023-03-12T01:07:45.392Z,22.86
2023-03-12T01:10:17.148Z,22.79
2023-03-12T01:12:49.138Z,22.76
2023-03-12T01:15:20.548Z,22.72
2023-03-12T01:17:50.801Z,22.69
2023-03-12T01:20:20.950Z,22.60
2023-03-12T01:22:51.137Z,22.59
2023-03-12T01:25:21.550Z,22.60
2023-03-12T01:27:51.430Z,22.62
2023-03-12T01:30:21.411Z,22.57
2023-03-12T01:32:57.481Z,22.55
2023-03-12T01:35:28.073Z,22.48
2023-03-12T01:37:58.215Z,22.48
2023-03-12T01:40:30.053Z,22.51
2023-03-12T01:43:00.224Z,22.49
2023-03-12T01:46:11.477Z,22.52
2023-03-12T01:49:13.388Z,22.48
2023-03-12T01:51:52.902Z,22.43
2023-03-12T01:54:33.004Z,22.45
2023-03-12T01:57:05.838Z,22.46
2023-03-12T01:59:45.093Z,22.45
2023-03-12T02:02:17.059Z,22.49
2023-03-12T02:04:48.929Z,22.46
2023-03-12T02:07:19.551Z,22.53
2023-03-12T02:09:50.808Z,22.52
2023-03-12T02:12:20.665Z,22.55
2023-03-12T02:14:50.818Z,22.53
2023-03-12T02:17:21.416Z,22.53
2023-03-12T02:20:24.467Z,22.53
2023-03-12T02:23:20.374Z,22.26
2023-03-12T02:25:55.329Z,22.25
2023-03-12T02:28:29.802Z,22.22
2023-03-12T02:31:03.649Z,22.21
2023-03-12T02:33:34.064Z,22.22
2023-03-12T02:36:04.130Z,22.24
2023-03-12T02:38:46.723Z,22.16
2023-03-12T02:42:03.025Z,22.22
2023-03-12T02:44:35.396Z,22.15
2023-03-12T02:47:05.990Z,22.09
2023-03-12T02:49:36.872Z,22.04
2023-03-12T02:52:07.116Z,22.02
2023-03-12T02:54:36.726Z,22.02
2023-03-12T02:57:06.600Z,21.97
2023-03-12T02:59:37.174Z,21.94
2023-03-12T03:02:10.747Z,21.93
2023-03-12T03:04:41.285Z,21.97
2023-03-12T03:07:11.203Z,21.97
2023-03-12T03:09:41.309Z,21.94
2023-03-12T03:12:11.416Z,21.91
2023-03-12T03:14:41.683Z,21.91
2023-03-12T03:17:12.077Z,21.94
2023-03-12T03:19:42.079Z,21.93
2023-03-12T03:22:13.037Z,21.91
2023-03-12T03:24:42.866Z,21.85
2023-03-12T03:27:12.474Z,21.73
2023-03-12T03:29:42.966Z,21.73
2023-03-12T03:32:13.309Z,21.71
2023-03-12T03:34:45.142Z,21.70
2023-03-12T03:37:14.926Z,21.77
2023-03-12T03:39:45.423Z,21.64
2023-03-12T03:42:15.290Z,21.65
2023-03-12T03:44:46.259Z,21.68
2023-03-12T03:47:16.620Z,21.61
2023-03-12T03:49:46.726Z,21.63
2023-03-12T03:52:16.594Z,21.60
2023-03-12T03:54:46.544Z,21.53
2023-03-12T03:57:16.469Z,21.47
2023-03-12T03:59:46.271Z,21.46
2023-03-12T04:02:16.211Z,21.44
2023-03-12T04:04:46.834Z,21.40
2023-03-12T04:07:17.570Z,21.44
2023-03-12T04:09:47.429Z,21.40
2023-03-12T04:12:17.251Z,21.42
2023-03-12T04:14:47.112Z,21.42
2023-03-12T04:17:16.794Z,21.42
2023-03-12T04:19:46.565Z,21.39
2023-03-12T04:22:16.836Z,21.34
2023-03-12T04:24:47.194Z,21.37
2023-03-12T04:27:17.219Z,21.33
2023-03-12T04:29:47.343Z,21.34
2023-03-12T04:32:18.092Z,21.34
2023-03-12T04:34:48.116Z,21.32
2023-03-12T04:37:19.581Z,21.29
2023-03-12T04:39:49.648Z,21.25
2023-03-12T04:42:20.186Z,21.20
2023-03-12T04:44:53.873Z,21.20
2023-03-12T04:47:23.860Z,21.27
2023-03-12T04:49:53.893Z,21.29
2023-03-12T04:52:24.179Z,21.30
2023-03-12T04:54:55.504Z,21.26
2023-03-12T04:57:25.349Z,21.25
2023-03-12T04:59:55.806Z,21.18
2023-03-12T05:02:26.524Z,21.20
2023-03-12T05:04:58.772Z,21.22
2023-03-12T05:07:28.498Z,21.20
2023-03-12T05:09:58.518Z,21.10
2023-03-12T05:12:28.435Z,21.07
2023-03-12T05:14:58.315Z,21.09
2023-03-12T05:17:29.824Z,21.03
2023-03-12T05:19:59.846Z,21.06
2023-03-12T05:22:30.193Z,21.06
2023-03-12T05:25:00.075Z,20.98
2023-03-12T05:27:31.961Z,20.95
2023-03-12T05:30:02.414Z,20.96
2023-03-12T05:32:33.621Z,20.98
2023-03-12T05:35:03.815Z,20.96
2023-03-12T05:37:34.457Z,20.96
2023-03-12T05:40:05.462Z,20.98
2023-03-12T05:42:35.274Z,20.98
2023-03-12T05:45:06.488Z,20.95
2023-03-12T05:47:37.374Z,20.95
2023-03-12T05:50:08.014Z,21.00
2023-03-12T05:52:38.393Z,20.95
2023-03-12T05:55:08.990Z,20.94
2023-03-12T05:57:39.148Z,21.00
2023-03-12T06:00:09.744Z,20.95
2023-03-12T06:02:53.991Z,20.89
2023-03-12T06:05:23.959Z,20.94
2023-03-12T06:07:53.954Z,20.95
2023-03-12T06:10:23.554Z,20.94
2023-03-12T06:12:53.323Z,20.92
2023-03-12T06:15:23.139Z,20.88
2023-03-12T06:17:53.026Z,20.81
2023-03-12T06:20:22.952Z,20.79
2023-03-12T06:22:53.105Z,20.76
2023-03-12T06:25:22.705Z,20.76
2023-03-12T06:27:52.524Z,20.71
2023-03-12T06:30:22.333Z,20.63
2023-03-12T06:32:52.044Z,20.63
2023-03-12T06:35:22.541Z,20.58
2023-03-12T06:37:52.590Z,20.57
2023-03-12T06:40:22.278Z,20.55
2023-03-12T06:42:51.869Z,20.48
2023-03-12T06:45:21.924Z,20.45
2023-03-12T06:47:51.798Z,20.49
2023-03-12T06:50:21.822Z,20.45
2023-03-12T06:52:51.833Z,20.41
2023-03-12T06:55:21.655Z,20.44
2023-03-12T06:57:51.242Z,20.43
2023-03-12T07:00:21.658Z,20.35
2023-03-12T07:02:51.475Z,20.28
2023-03-12T07:05:21.331Z,20.34
2023-03-12T07:07:52.426Z,20.35
2023-03-12T07:10:22.578Z,20.30
2023-03-12T07:12:52.546Z,20.24
2023-03-12T07:15:22.635Z,20.16
2023-03-12T07:17:52.321Z,20.16
2023-03-12T07:20:22.053Z,20.18
2023-03-12T07:22:51.833Z,20.17
2023-03-12T07:25:21.611Z,20.10
2023-03-12T07:27:51.235Z,20.14
2023-03-12T07:30:20.912Z,20.09
2023-03-12T07:32:50.741Z,20.09
2023-03-12T07:35:20.591Z,20.07
2023-03-12T07:37:50.241Z,20.06
2023-03-12T07:40:20.128Z,20.03
2023-03-12T07:42:49.730Z,20.00
2023-03-12T07:45:20.791Z,20.05
2023-03-12T07:47:51.549Z,19.92
2023-03-12T07:50:22.221Z,19.87
2023-03-12T07:52:53.093Z,19.87
2023-03-12T07:55:23.113Z,19.90
2023-03-12T07:57:52.811Z,19.90
2023-03-12T08:00:22.928Z,19.90
2023-03-12T08:02:54.654Z,19.90
2023-03-12T08:05:26.118Z,19.87
2023-03-12T08:07:56.358Z,19.83
2023-03-12T08:10:26.190Z,19.77
2023-03-12T08:12:55.851Z,19.70
2023-03-12T08:15:26.578Z,19.67
2023-03-12T08:17:56.409Z,19.69
2023-03-12T08:20:26.222Z,19.72
2023-03-12T08:22:56.202Z,19.66
2023-03-12T08:25:26.080Z,19.62
2023-03-12T08:27:56.087Z,19.61
2023-03-12T08:30:27.764Z,19.55
2023-03-12T08:32:59.539Z,19.62
2023-03-12T08:35:30.101Z,19.65
2023-03-12T08:38:02.121Z,19.65
2023-03-12T08:40:32.163Z,19.61
2023-03-12T08:43:03.124Z,19.59
2023-03-12T08:45:33.595Z,19.54
2023-03-12T08:48:04.374Z,19.52
2023-03-12T08:50:35.767Z,19.48
2023-03-12T08:53:05.569Z,19.46
2023-03-12T08:55:37.157Z,19.49
2023-03-12T08:58:06.820Z,19.49
2023-03-12T09:00:38.299Z,19.41
2023-03-12T09:03:08.198Z,19.42
2023-03-12T09:05:38.194Z,19.39
2023-03-12T09:08:08.019Z,19.29
2023-03-12T09:10:38.233Z,19.32
2023-03-12T09:13:08.798Z,19.31
2023-03-12T09:15:38.584Z,19.25
2023-03-12T09:18:08.458Z,19.24
2023-03-12T09:20:38.512Z,19.21
2023-03-12T09:23:08.708Z,19.25
2023-03-12T09:25:38.636Z,19.29
2023-03-12T09:28:09.468Z,19.27
2023-03-12T09:30:39.667Z,19.22
2023-03-12T09:33:09.895Z,19.24
2023-03-12T09:35:40.119Z,19.25
2023-03-12T09:38:13.296Z,19.21
2023-03-12T09:40:48.415Z,19.22
2023-03-12T09:43:41.977Z,19.32
2023-03-12T09:46:19.680Z,19.36
2023-03-12T09:48:51.474Z,19.24
2023-03-12T09:51:34.128Z,19.25
2023-03-12T09:54:08.612Z,19.22
2023-03-12T09:56:38.788Z,19.35
2023-03-12T09:59:14.136Z,19.42
2023-03-12T10:01:53.123Z,19.41
2023-03-12T10:04:59.051Z,19.51
2023-03-12T10:08:00.532Z,19.62
2023-03-12T10:11:11.748Z,19.72
2023-03-12T10:14:09.327Z,19.76
2023-03-12T10:17:00.325Z,19.86
2023-03-12T10:19:54.948Z,20.16
2023-03-12T10:22:33.365Z,20.84
2023-03-12T10:25:32.393Z,21.44
2023-03-12T10:28:15.304Z,21.90
2023-03-12T10:30:55.765Z,22.35
2023-03-12T10:33:35.110Z,22.67
2023-03-12T10:36:16.352Z,23.07
2023-03-12T10:38:46.644Z,23.34
2023-03-12T10:41:19.692Z,23.66
2023-03-12T10:43:49.976Z,23.86
2023-03-12T10:46:38.215Z,24.27
2023-03-12T10:49:40.292Z,24.47
2023-03-12T10:52:21.230Z,24.61
2023-03-12T10:54:53.770Z,24.89
2023-03-12T10:57:23.936Z,25.07
2023-03-12T10:59:53.800Z,25.32
2023-03-12T11:02:35.003Z,25.59
2023-03-12T11:05:19.934Z,25.62
2023-03-12T11:07:50.002Z,25.97
2023-03-12T11:10:23.329Z,26.55
2023-03-12T11:13:03.686Z,26.73
2023-03-12T11:15:43.458Z,26.96
2023-03-12T11:18:33.463Z,27.17
2023-03-12T11:21:14.540Z,27.27
2023-03-12T11:24:08.260Z,27.57
2023-03-12T11:26:51.474Z,28.22
2023-03-12T11:29:34.390Z,28.66
2023-03-12T11:32:21.397Z,28.67
2023-03-12T11:34:52.446Z,28.70
2023-03-12T11:37:45.651Z,28.88
2023-03-12T11:40:20.757Z,28.80
2023-03-12T11:43:02.512Z,29.14
2023-03-12T11:45:49.535Z,29.74
2023-03-12T11:48:33.748Z,30.04
2023-03-12T11:51:24.418Z,29.15
2023-03-12T11:53:54.442Z,29.04
2023-03-12T11:56:36.128Z,29.15
2023-03-12T11:59:28.982Z,28.68
2023-03-12T12:02:01.778Z,28.01
2023-03-12T12:04:49.273Z,27.67
2023-03-12T12:07:40.890Z,27.94
2023-03-12T12:10:33.861Z,27.85
2023-03-12T12:13:27.767Z,27.88
2023-03-12T12:16:27.853Z,27.53
2023-03-12T12:19:08.707Z,27.91
2023-03-12T12:22:12.394Z,28.27
2023-03-12T12:24:56.832Z,29.11
2023-03-12T12:27:30.438Z,28.75
2023-03-12T12:30:12.074Z,29.01
2023-03-12T12:33:16.714Z,28.67
2023-03-12T12:35:47.565Z,29.05
2023-03-12T12:38:31.636Z,29.58
2023-03-12T12:41:08.749Z,30.14
2023-03-12T12:43:42.981Z,30.18
2023-03-12T12:46:23.941Z,29.45
2023-03-12T12:49:02.919Z,29.82
2023-03-12T12:51:36.695Z,30.98
2023-03-12T12:54:11.614Z,31.36
2023-03-12T12:56:52.022Z,31.69
2023-03-12T12:59:37.458Z,31.98
2023-03-12T13:02:27.761Z,31.40
2023-03-12T13:05:01.366Z,31.59
2023-03-12T13:07:35.284Z,31.94
2023-03-12T13:10:22.645Z,30.91
2023-03-12T13:12:56.770Z,30.68
2023-03-12T13:15:32.448Z,30.35
2023-03-12T13:18:30.106Z,30.60
2023-03-12T13:21:21.468Z,31.64
2023-03-12T13:24:23.566Z,31.54
2023-03-12T13:27:25.773Z,31.53
2023-03-12T13:29:59.155Z,31.08
2023-03-12T13:32:53.396Z,30.69
2023-03-12T13:35:23.492Z,31.67
2023-03-12T13:37:53.081Z,31.90
2023-03-12T13:40:32.030Z,31.95
2023-03-12T13:43:15.977Z,32.22
2023-03-12T13:46:08.698Z,33.21
2023-03-12T13:48:47.691Z,33.20
2023-03-12T13:51:25.595Z,33.31
2023-03-12T13:53:59.421Z,32.25
2023-03-12T13:56:34.402Z,32.80
2023-03-12T13:59:17.021Z,32.58
2023-03-12T14:01:53.098Z,31.85
2023-03-12T14:04:27.056Z,31.49
2023-03-12T14:07:17.258Z,31.92
2023-03-12T14:10:21.686Z,32.07
2023-03-12T14:13:14.622Z,33.04
2023-03-12T14:16:07.339Z,33.86
2023-03-12T14:18:39.695Z,33.51
2023-03-12T14:21:14.366Z,33.10
2023-03-12T14:24:33.619Z,31.95
2023-03-12T14:27:06.964Z,31.94
2023-03-12T14:29:51.317Z,33.64
2023-03-12T14:32:33.637Z,33.72
2023-03-12T14:35:27.072Z,32.14
2023-03-12T14:37:56.999Z,33.62
2023-03-12T14:40:31.737Z,35.58
2023-03-12T14:43:03.179Z,34.47
2023-03-12T14:45:53.431Z,33.34
2023-03-12T14:48:25.616Z,32.00
2023-03-12T14:50:58.417Z,31.46
2023-03-12T14:53:34.624Z,31.57
2023-03-12T14:56:16.831Z,32.25
2023-03-12T14:58:49.908Z,32.56
2023-03-12T15:01:34.201Z,31.76
2023-03-12T15:04:09.026Z,31.23
2023-03-12T15:06:44.576Z,30.75
2023-03-12T15:09:30.106Z,30.98
2023-03-12T15:12:00.192Z,30.93
2023-03-12T15:14:33.773Z,30.95
2023-03-12T15:17:06.652Z,30.88
2023-03-12T15:19:41.543Z,31.13
2023-03-12T15:22:21.868Z,31.66
2023-03-12T15:24:51.886Z,31.47
2023-03-12T15:27:31.698Z,31.69
2023-03-12T15:30:03.173Z,31.80
2023-03-12T15:32:33.196Z,31.57
2023-03-12T15:35:14.693Z,32.24
2023-03-12T15:37:54.515Z,32.51
2023-03-12T15:40:30.198Z,32.99
2023-03-12T15:43:04.396Z,33.88
2023-03-12T15:45:39.136Z,34.27
2023-03-12T15:48:40.559Z,33.69
2023-03-12T15:51:29.750Z,33.10
2023-03-12T15:54:16.312Z,33.48
2023-03-12T15:56:47.224Z,36.17
2023-03-12T15:59:29.411Z,36.67
2023-03-12T16:01:59.365Z,36.27
2023-03-12T16:04:29.465Z,37.15
2023-03-12T16:06:59.522Z,36.34
2023-03-12T16:09:34.217Z,36.74
2023-03-12T16:12:04.610Z,33.91
2023-03-12T16:14:37.480Z,32.76
2023-03-12T16:17:15.293Z,32.75
2023-03-12T16:19:45.671Z,33.89
2023-03-12T16:22:15.967Z,33.68
2023-03-12T16:24:45.827Z,32.76
2023-03-12T16:27:31.740Z,32.12
2023-03-12T16:30:03.590Z,31.53
2023-03-12T16:32:33.482Z,31.39
2023-03-12T16:35:03.448Z,33.23
2023-03-12T16:37:33.840Z,34.87
2023-03-12T16:40:03.646Z,35.72
2023-03-12T16:42:33.362Z,34.20
2023-03-12T16:45:04.403Z,32.51
2023-03-12T16:47:34.326Z,33.06
2023-03-12T16:50:04.122Z,33.17
2023-03-12T16:52:33.735Z,33.34
2023-03-12T16:55:03.527Z,32.72
2023-03-12T16:57:40.864Z,31.90
2023-03-12T17:00:20.510Z,33.10
2023-03-12T17:02:52.926Z,35.04
2023-03-12T17:05:23.065Z,34.53
2023-03-12T17:07:52.983Z,32.79
2023-03-12T17:10:24.267Z,34.29
2023-03-12T17:12:56.808Z,33.10
2023-03-12T17:15:35.155Z,32.69
2023-03-12T17:18:05.615Z,31.84
2023-03-12T17:20:37.279Z,31.51
2023-03-12T17:23:08.442Z,31.29
2023-03-12T17:25:41.193Z,31.43
2023-03-12T17:28:11.729Z,31.54
2023-03-12T17:30:41.827Z,31.57
2023-03-12T17:33:15.065Z,32.91
2023-03-12T17:35:46.160Z,33.74
2023-03-12T17:38:16.361Z,33.13
2023-03-12T17:40:46.307Z,33.41
2023-03-12T17:43:16.166Z,33.67
2023-03-12T17:45:46.420Z,34.44
2023-03-12T17:48:19.521Z,33.57
2023-03-12T17:50:49.540Z,33.74
2023-03-12T17:53:19.202Z,34.91
2023-03-12T17:55:49.300Z,35.99
2023-03-12T17:58:19.282Z,37.16
2023-03-12T18:00:48.955Z,35.34
2023-03-12T18:03:18.869Z,34.93
2023-03-12T18:05:52.134Z,33.94
2023-03-12T18:08:22.107Z,33.68
2023-03-12T18:10:52.367Z,33.37
2023-03-12T18:13:23.351Z,33.53
2023-03-12T18:15:55.436Z,33.47
2023-03-12T18:18:26.088Z,35.63
2023-03-12T18:20:56.265Z,35.46
2023-03-12T18:23:26.772Z,34.87
2023-03-12T18:25:56.816Z,34.68
2023-03-12T18:28:26.744Z,34.26
2023-03-12T18:30:56.435Z,32.90
2023-03-12T18:33:26.558Z,31.88
2023-03-12T18:35:56.218Z,33.08
2023-03-12T18:38:26.110Z,33.51
2023-03-12T18:41:08.221Z,33.89
2023-03-12T18:43:38.726Z,34.32
2023-03-12T18:46:09.883Z,34.27
2023-03-12T18:48:41.407Z,34.06
2023-03-12T18:51:12.984Z,33.81
2023-03-12T18:53:42.855Z,33.81
2023-03-12T18:56:13.568Z,33.57
2023-03-12T18:58:44.799Z,33.31
2023-03-12T19:01:15.090Z,33.28
2023-03-12T19:03:45.141Z,33.21
2023-03-12T19:06:18.725Z,33.18
2023-03-12T19:08:48.762Z,33.17
2023-03-12T19:11:18.803Z,33.10
2023-03-12T19:13:53.330Z,32.93
2023-03-12T19:16:24.250Z,33.20
2023-03-12T19:18:54.112Z,33.23
2023-03-12T19:21:24.651Z,33.21
2023-03-12T19:23:54.690Z,32.99
2023-03-12T19:26:24.352Z,32.59
2023-03-12T19:28:54.381Z,32.84
2023-03-12T19:31:24.381Z,32.89
2023-03-12T19:33:54.482Z,32.42
2023-03-12T19:36:24.688Z,31.60
2023-03-12T19:38:54.574Z,31.08
2023-03-12T19:41:24.476Z,31.44
2023-03-12T19:43:54.302Z,31.87
2023-03-12T19:46:24.176Z,32.14
2023-03-12T19:48:53.993Z,32.22
2023-03-12T19:51:23.972Z,32.39
2023-03-12T19:53:53.840Z,31.98
2023-03-12T19:56:23.696Z,32.19
2023-03-12T19:58:53.415Z,31.87
2023-03-12T20:01:24.115Z,29.80
2023-03-12T20:03:54.114Z,28.15
2023-03-12T20:06:24.852Z,27.31
2023-03-12T20:08:54.752Z,26.87
2023-03-12T20:11:24.385Z,27.06
2023-03-12T20:13:54.484Z,27.24
2023-03-12T20:16:24.383Z,27.14
2023-03-12T20:18:54.197Z,27.03
2023-03-12T20:21:24.420Z,27.00
2023-03-12T20:23:56.256Z,26.90
2023-03-12T20:26:26.388Z,26.86
2023-03-12T20:28:56.265Z,26.58
2023-03-12T20:31:26.168Z,26.59
2023-03-12T20:33:56.853Z,26.52
2023-03-12T20:36:28.043Z,26.62
2023-03-12T20:38:58.036Z,26.73
2023-03-12T20:41:27.859Z,26.76
2023-03-12T20:43:58.804Z,26.71
2023-03-12T20:46:29.220Z,26.82
2023-03-12T20:48:59.138Z,26.79
2023-03-12T20:51:29.235Z,26.82
2023-03-12T20:53:59.275Z,26.80
2023-03-12T20:56:29.125Z,26.78
2023-03-12T20:59:00.677Z,26.82
2023-03-12T21:01:30.572Z,26.82
2023-03-12T21:04:00.776Z,26.85
2023-03-12T21:06:31.716Z,26.83
2023-03-12T21:09:01.753Z,26.86
2023-03-12T21:11:32.455Z,26.80
2023-03-12T21:14:02.455Z,26.63
2023-03-12T21:16:32.364Z,26.44
2023-03-12T21:19:02.306Z,26.29
2023-03-12T21:21:33.338Z,26.22
2023-03-12T21:24:03.302Z,26.17
2023-03-12T21:26:33.443Z,26.17
2023-03-12T21:29:03.445Z,25.97
2023-03-12T21:31:33.285Z,25.84
2023-03-12T21:34:03.111Z,25.81
2023-03-12T21:36:33.615Z,25.81
2023-03-12T21:39:03.508Z,25.76
2023-03-12T21:41:33.357Z,25.69
2023-03-12T21:44:03.986Z,25.62
2023-03-12T21:46:33.944Z,25.58
2023-03-12T21:49:03.849Z,25.49
2023-03-12T21:51:33.755Z,25.38
2023-03-12T21:54:04.537Z,25.22
2023-03-12T21:56:34.562Z,25.15
2023-03-12T21:59:04.455Z,25.07
2023-03-12T22:01:34.463Z,25.01
2023-03-12T22:04:06.256Z,24.92
2023-03-12T22:06:36.194Z,24.87
2023-03-12T22:09:06.068Z,24.82
2023-03-12T22:11:35.792Z,24.74
2023-03-12T22:14:05.742Z,24.72
2023-03-12T22:16:35.400Z,24.70
2023-03-12T22:19:06.357Z,24.67
2023-03-12T22:21:36.241Z,24.56
2023-03-12T22:24:06.173Z,24.49
2023-03-12T22:26:35.932Z,24.34
2023-03-12T22:29:06.383Z,24.33
2023-03-12T22:31:36.341Z,24.33
2023-03-12T22:34:06.083Z,24.24
2023-03-12T22:36:35.802Z,24.21
2023-03-12T22:39:06.906Z,24.19
2023-03-12T22:41:37.155Z,24.14
2023-03-12T22:44:10.139Z,24.09
2023-03-12T22:46:39.969Z,24.05
2023-03-12T22:49:10.028Z,23.96
2023-03-12T22:51:39.993Z,23.79
2023-03-12T22:54:09.862Z,23.69
2023-03-12T22:56:39.772Z,23.72
2023-03-12T22:59:09.785Z,23.71
2023-03-12T23:01:41.251Z,23.68
2023-03-12T23:04:11.384Z,23.58
2023-03-12T23:06:41.081Z,23.57
2023-03-12T23:09:10.978Z,23.62
2023-03-12T23:11:42.296Z,23.58
2023-03-12T23:14:12.207Z,23.51
2023-03-12T23:16:42.275Z,23.42
2023-03-12T23:19:11.919Z,23.42
2023-03-12T23:21:44.238Z,23.34
2023-03-12T23:24:14.593Z,23.32
2023-03-12T23:26:46.018Z,23.37
2023-03-12T23:29:16.084Z,23.32
2023-03-12T23:31:46.096Z,23.25
2023-03-12T23:34:16.372Z,23.20
2023-03-12T23:36:47.295Z,23.14
2023-03-12T23:39:17.353Z,23.15
2023-03-12T23:41:48.868Z,23.20
2023-03-12T23:44:18.556Z,23.14
2023-03-12T23:46:48.510Z,23.13
2023-03-12T23:49:18.210Z,23.06
2023-03-12T23:51:47.908Z,23.03
2023-03-12T23:54:17.965Z,23.00
2023-03-12T23:56:47.932Z,22.93
2023-03-12T23:59:18.340Z,22.84
